sensor_id;sensor_type;location;lat;lon;timestamp;P1;durP1;ratioP1;P2;durP2;ratioP2
55288;SDS011;41154;45.394;5.734;2023-05-10T00:01:23;0.65;;;0.57;;
55288;SDS011;41154;45.394;5.734;2023-05-10T00:03:49;1.15;;;0.63;;
55288;SDS011;41154;45.394;5.734;2023-05-10T00:06:15;1.60;;;1.05;;
55288;SDS011;41154;45.394;5.734;2023-05-10T00:08:41;1.92;;;0.90;;
55288;SDS011;41154;45.394;5.734;2023-05-10T00:11:07;5.97;;;1.13;;
55288;SDS011;41154;45.394;5.734;2023-05-10T00:13:33;1.63;;;0.70;;
55288;SDS011;41154;45.394;5.734;2023-05-10T00:15:58;0.93;;;0.80;;
55288;SDS011;41154;45.394;5.734;2023-05-10T00:18:24;1.10;;;0.80;;
55288;SDS011;41154;45.394;5.734;2023-05-10T00:20:50;1.60;;;0.77;;
55288;SDS011;41154;45.394;5.734;2023-05-10T00:23:16;1.65;;;1.02;;
55288;SDS011;41154;45.394;5.734;2023-05-10T00:25:41;0.88;;;0.63;;
55288;SDS011;41154;45.394;5.734;2023-05-10T00:28:07;1.38;;;0.70;;
55288;SDS011;41154;45.394;5.734;2023-05-10T00:30:33;0.68;;;0.50;;
55288;SDS011;41154;45.394;5.734;2023-05-10T00:33:00;1.10;;;0.80;;
55288;SDS011;41154;45.394;5.734;2023-05-10T00:35:26;0.70;;;0.50;;
55288;SDS011;41154;45.394;5.734;2023-05-10T00:37:52;1.70;;;0.60;;
55288;SDS011;41154;45.394;5.734;2023-05-10T00:40:19;1.30;;;0.70;;
55288;SDS011;41154;45.394;5.734;2023-05-10T00:42:50;1.77;;;0.60;;
55288;SDS011;41154;45.394;5.734;2023-05-10T00:45:15;0.70;;;0.52;;
55288;SDS011;41154;45.394;5.734;2023-05-10T00:47:41;0.43;;;0.30;;
55288;SDS011;41154;45.394;5.734;2023-05-10T00:50:07;0.85;;;0.43;;
55288;SDS011;41154;45.394;5.734;2023-05-10T00:52:34;4.03;;;0.40;;
55288;SDS011;41154;45.394;5.734;2023-05-10T00:55:00;0.50;;;0.45;;
55288;SDS011;41154;45.394;5.734;2023-05-10T00:57:26;1.75;;;0.68;;
55288;SDS011;41154;45.394;5.734;2023-05-10T00:59:52;0.70;;;0.40;;
55288;SDS011;41154;45.394;5.734;2023-05-10T01:02:18;0.68;;;0.60;;
55288;SDS011;41154;45.394;5.734;2023-05-10T01:04:44;1.02;;;0.60;;
55288;SDS011;41154;45.394;5.734;2023-05-10T01:07:10;0.70;;;0.68;;
55288;SDS011;41154;45.394;5.734;2023-05-10T01:09:36;0.55;;;0.45;;
55288;SDS011;41154;45.394;5.734;2023-05-10T01:12:02;1.42;;;0.50;;
55288;SDS011;41154;45.394;5.734;2023-05-10T01:14:29;0.95;;;0.65;;
55288;SDS011;41154;45.394;5.734;2023-05-10T01:16:55;6.53;;;0.70;;
55288;SDS011;41154;45.394;5.734;2023-05-10T01:19:22;1.30;;;0.90;;
55288;SDS011;41154;45.394;5.734;2023-05-10T01:35:30;1.80;;;1.05;;
55288;SDS011;41154;45.394;5.734;2023-05-10T01:38:22;1.40;;;0.90;;
55288;SDS011;41154;45.394;5.734;2023-05-10T01:43:44;0.98;;;0.60;;
55288;SDS011;41154;45.394;5.734;2023-05-10T01:46:21;2.97;;;1.00;;
55288;SDS011;41154;45.394;5.734;2023-05-10T01:48:53;1.13;;;0.90;;
55288;SDS011;41154;45.394;5.734;2023-05-10T01:51:23;3.83;;;0.90;;
55288;SDS011;41154;45.394;5.734;2023-05-10T01:53:54;1.00;;;0.73;;
55288;SDS011;41154;45.394;5.734;2023-05-10T01:56:29;4.45;;;0.65;;
55288;SDS011;41154;45.394;5.734;2023-05-10T01:58:57;1.77;;;0.57;;
55288;SDS011;41154;45.394;5.734;2023-05-10T02:01:25;10.82;;;0.80;;
55288;SDS011;41154;45.394;5.734;2023-05-10T02:03:52;2.17;;;0.45;;
55288;SDS011;41154;45.394;5.734;2023-05-10T02:06:20;0.73;;;0.43;;
55288;SDS011;41154;45.394;5.734;2023-05-10T02:08:49;1.33;;;0.63;;
55288;SDS011;41154;45.394;5.734;2023-05-10T02:11:16;1.00;;;0.60;;
55288;SDS011;41154;45.394;5.734;2023-05-10T02:13:43;0.40;;;0.40;;
55288;SDS011;41154;45.394;5.734;2023-05-10T02:16:12;0.60;;;0.50;;
55288;SDS011;41154;45.394;5.734;2023-05-10T02:18:39;2.25;;;0.68;;
55288;SDS011;41154;45.394;5.734;2023-05-10T02:21:06;0.50;;;0.50;;
55288;SDS011;41154;45.394;5.734;2023-05-10T02:23:34;1.00;;;0.47;;
55288;SDS011;41154;45.394;5.734;2023-05-10T02:26:01;0.50;;;0.50;;
55288;SDS011;41154;45.394;5.734;2023-05-10T02:28:28;4.68;;;0.60;;
55288;SDS011;41154;45.394;5.734;2023-05-10T02:30:56;2.33;;;0.60;;
55288;SDS011;41154;45.394;5.734;2023-05-10T02:33:22;0.50;;;0.50;;
55288;SDS011;41154;45.394;5.734;2023-05-10T02:35:51;3.17;;;0.60;;
55288;SDS011;41154;45.394;5.734;2023-05-10T02:38:18;0.30;;;0.30;;
55288;SDS011;41154;45.394;5.734;2023-05-10T02:40:46;1.13;;;0.70;;
55288;SDS011;41154;45.394;5.734;2023-05-10T02:43:15;1.85;;;0.50;;
55288;SDS011;41154;45.394;5.734;2023-05-10T02:45:42;1.13;;;0.57;;
55288;SDS011;41154;45.394;5.734;2023-05-10T02:48:12;1.20;;;0.65;;
55288;SDS011;41154;45.394;5.734;2023-05-10T02:50:38;3.92;;;0.98;;
55288;SDS011;41154;45.394;5.734;2023-05-10T02:53:09;4.72;;;0.80;;
55288;SDS011;41154;45.394;5.734;2023-05-10T02:55:40;2.35;;;0.52;;
55288;SDS011;41154;45.394;5.734;2023-05-10T02:58:10;1.38;;;0.65;;
55288;SDS011;41154;45.394;5.734;2023-05-10T03:00:36;2.05;;;0.85;;
55288;SDS011;41154;45.394;5.734;2023-05-10T03:03:02;0.60;;;0.60;;
55288;SDS011;41154;45.394;5.734;2023-05-10T03:05:28;1.30;;;0.65;;
55288;SDS011;41154;45.394;5.734;2023-05-10T03:07:54;0.57;;;0.45;;
55288;SDS011;41154;45.394;5.734;2023-05-10T03:10:21;2.55;;;0.68;;
55288;SDS011;41154;45.394;5.734;2023-05-10T03:13:07;0.80;;;0.55;;
55288;SDS011;41154;45.394;5.734;2023-05-10T03:18:33;2.17;;;0.95;;
55288;SDS011;41154;45.394;5.734;2023-05-10T03:21:03;2.28;;;0.70;;
55288;SDS011;41154;45.394;5.734;2023-05-10T03:23:41;4.93;;;1.52;;
55288;SDS011;41154;45.394;5.734;2023-05-10T03:26:13;1.27;;;1.13;;
55288;SDS011;41154;45.394;5.734;2023-05-10T03:28:58;1.45;;;1.00;;
55288;SDS011;41154;45.394;5.734;2023-05-10T03:31:25;0.88;;;0.60;;
55288;SDS011;41154;45.394;5.734;2023-05-10T03:33:51;0.70;;;0.70;;
55288;SDS011;41154;45.394;5.734;2023-05-10T03:36:23;0.98;;;0.60;;
55288;SDS011;41154;45.394;5.734;2023-05-10T03:38:49;0.90;;;0.75;;
55288;SDS011;41154;45.394;5.734;2023-05-10T03:41:15;1.15;;;0.73;;
55288;SDS011;41154;45.394;5.734;2023-05-10T03:43:41;1.15;;;1.02;;
55288;SDS011;41154;45.394;5.734;2023-05-10T03:46:07;1.20;;;1.10;;
55288;SDS011;41154;45.394;5.734;2023-05-10T03:48:33;2.15;;;0.80;;
55288;SDS011;41154;45.394;5.734;2023-05-10T03:50:59;1.10;;;0.93;;
55288;SDS011;41154;45.394;5.734;2023-05-10T03:53:25;0.80;;;0.80;;
55288;SDS011;41154;45.394;5.734;2023-05-10T03:55:50;1.58;;;0.98;;
55288;SDS011;41154;45.394;5.734;2023-05-10T03:58:16;0.70;;;0.63;;
55288;SDS011;41154;45.394;5.734;2023-05-10T04:00:42;0.80;;;0.80;;
55288;SDS011;41154;45.394;5.734;2023-05-10T04:03:11;1.27;;;0.80;;
55288;SDS011;41154;45.394;5.734;2023-05-10T04:05:37;1.58;;;1.10;;
55288;SDS011;41154;45.394;5.734;2023-05-10T04:08:06;1.27;;;1.17;;
55288;SDS011;41154;45.394;5.734;2023-05-10T04:10:32;1.25;;;1.00;;
55288;SDS011;41154;45.394;5.734;2023-05-10T04:12:57;1.45;;;1.00;;
55288;SDS011;41154;45.394;5.734;2023-05-10T04:15:23;1.42;;;0.90;;
55288;SDS011;41154;45.394;5.734;2023-05-10T04:17:49;1.33;;;1.23;;
55288;SDS011;41154;45.394;5.734;2023-05-10T04:20:15;2.58;;;1.13;;
55288;SDS011;41154;45.394;5.734;2023-05-10T04:22:41;1.90;;;1.27;;
55288;SDS011;41154;45.394;5.734;2023-05-10T04:25:07;0.88;;;0.85;;
55288;SDS011;41154;45.394;5.734;2023-05-10T04:27:33;1.40;;;1.10;;
55288;SDS011;41154;45.394;5.734;2023-05-10T04:29:59;1.65;;;1.30;;
55288;SDS011;41154;45.394;5.734;2023-05-10T04:32:24;1.58;;;1.30;;
55288;SDS011;41154;45.394;5.734;2023-05-10T04:34:50;1.20;;;1.08;;
55288;SDS011;41154;45.394;5.734;2023-05-10T04:37:17;1.95;;;1.27;;
55288;SDS011;41154;45.394;5.734;2023-05-10T04:39:43;1.42;;;1.10;;
55288;SDS011;41154;45.394;5.734;2023-05-10T04:42:09;2.22;;;1.08;;
55288;SDS011;41154;45.394;5.734;2023-05-10T04:44:35;2.65;;;0.93;;
55288;SDS011;41154;45.394;5.734;2023-05-10T04:47:01;0.98;;;0.80;;
55288;SDS011;41154;45.394;5.734;2023-05-10T04:49:28;2.20;;;1.15;;
55288;SDS011;41154;45.394;5.734;2023-05-10T04:51:55;1.13;;;0.80;;
55288;SDS011;41154;45.394;5.734;2023-05-10T04:54:21;0.70;;;0.70;;
55288;SDS011;41154;45.394;5.734;2023-05-10T04:56:46;2.28;;;1.00;;
55288;SDS011;41154;45.394;5.734;2023-05-10T04:59:12;2.03;;;0.98;;
55288;SDS011;41154;45.394;5.734;2023-05-10T05:01:38;1.33;;;0.70;;
55288;SDS011;41154;45.394;5.734;2023-05-10T05:04:04;2.45;;;0.80;;
55288;SDS011;41154;45.394;5.734;2023-05-10T05:06:30;2.95;;;1.00;;
55288;SDS011;41154;45.394;5.734;2023-05-10T05:08:55;2.72;;;0.82;;
55288;SDS011;41154;45.394;5.734;2023-05-10T05:11:21;0.95;;;0.63;;
55288;SDS011;41154;45.394;5.734;2023-05-10T05:13:47;0.82;;;0.70;;
55288;SDS011;41154;45.394;5.734;2023-05-10T05:16:13;4.65;;;0.90;;
55288;SDS011;41154;45.394;5.734;2023-05-10T05:18:38;1.05;;;0.65;;
55288;SDS011;41154;45.394;5.734;2023-05-10T05:21:17;1.00;;;0.80;;
55288;SDS011;41154;45.394;5.734;2023-05-10T05:23:43;0.90;;;0.80;;
55288;SDS011;41154;45.394;5.734;2023-05-10T05:26:09;1.55;;;0.93;;
55288;SDS011;41154;45.394;5.734;2023-05-10T05:28:36;3.60;;;1.00;;
55288;SDS011;41154;45.394;5.734;2023-05-10T05:31:04;3.33;;;0.82;;
55288;SDS011;41154;45.394;5.734;2023-05-10T05:33:30;1.98;;;0.80;;
55288;SDS011;41154;45.394;5.734;2023-05-10T05:35:56;2.25;;;1.02;;
55288;SDS011;41154;45.394;5.734;2023-05-10T05:38:22;1.75;;;0.70;;
55288;SDS011;41154;45.394;5.734;2023-05-10T05:40:48;1.40;;;0.80;;
55288;SDS011;41154;45.394;5.734;2023-05-10T05:43:14;1.63;;;0.80;;
55288;SDS011;41154;45.394;5.734;2023-05-10T05:45:40;0.98;;;0.57;;
55288;SDS011;41154;45.394;5.734;2023-05-10T05:48:06;1.30;;;0.60;;
55288;SDS011;41154;45.394;5.734;2023-05-10T05:50:31;1.55;;;0.70;;
55288;SDS011;41154;45.394;5.734;2023-05-10T05:52:57;1.10;;;0.55;;
55288;SDS011;41154;45.394;5.734;2023-05-10T05:55:24;1.30;;;0.50;;
55288;SDS011;41154;45.394;5.734;2023-05-10T05:57:51;0.55;;;0.40;;
55288;SDS011;41154;45.394;5.734;2023-05-10T06:00:17;2.65;;;0.70;;
55288;SDS011;41154;45.394;5.734;2023-05-10T06:02:44;2.80;;;0.70;;
55288;SDS011;41154;45.394;5.734;2023-05-10T06:05:10;3.90;;;0.60;;
55288;SDS011;41154;45.394;5.734;2023-05-10T06:07:35;1.45;;;0.90;;
55288;SDS011;41154;45.394;5.734;2023-05-10T06:10:01;3.60;;;0.65;;
55288;SDS011;41154;45.394;5.734;2023-05-10T06:12:28;3.60;;;0.98;;
55288;SDS011;41154;45.394;5.734;2023-05-10T06:14:53;2.10;;;0.90;;
55288;SDS011;41154;45.394;5.734;2023-05-10T06:17:19;5.28;;;0.80;;
55288;SDS011;41154;45.394;5.734;2023-05-10T06:19:45;2.10;;;0.70;;
55288;SDS011;41154;45.394;5.734;2023-05-10T06:22:11;2.28;;;1.02;;
55288;SDS011;41154;45.394;5.734;2023-05-10T06:24:37;1.70;;;1.00;;
55288;SDS011;41154;45.394;5.734;2023-05-10T06:27:03;2.30;;;0.90;;
55288;SDS011;41154;45.394;5.734;2023-05-10T06:29:29;1.25;;;0.73;;
55288;SDS011;41154;45.394;5.734;2023-05-10T06:31:54;1.98;;;0.88;;
55288;SDS011;41154;45.394;5.734;2023-05-10T06:34:20;2.05;;;0.90;;
55288;SDS011;41154;45.394;5.734;2023-05-10T06:36:46;2.55;;;1.00;;
55288;SDS011;41154;45.394;5.734;2023-05-10T06:39:11;6.63;;;0.98;;
55288;SDS011;41154;45.394;5.734;2023-05-10T06:41:37;1.85;;;0.95;;
55288;SDS011;41154;45.394;5.734;2023-05-10T06:44:03;1.58;;;0.95;;
55288;SDS011;41154;45.394;5.734;2023-05-10T06:46:29;2.17;;;1.00;;
55288;SDS011;41154;45.394;5.734;2023-05-10T06:48:55;6.55;;;1.35;;
55288;SDS011;41154;45.394;5.734;2023-05-10T06:51:20;1.60;;;1.10;;
55288;SDS011;41154;45.394;5.734;2023-05-10T06:53:46;3.50;;;0.95;;
55288;SDS011;41154;45.394;5.734;2023-05-10T06:56:12;2.08;;;1.10;;
55288;SDS011;41154;45.394;5.734;2023-05-10T06:58:38;3.88;;;0.98;;
55288;SDS011;41154;45.394;5.734;2023-05-10T07:01:06;4.75;;;1.63;;
55288;SDS011;41154;45.394;5.734;2023-05-10T07:03:31;4.07;;;1.90;;
55288;SDS011;41154;45.394;5.734;2023-05-10T07:06:03;5.70;;;1.98;;
55288;SDS011;41154;45.394;5.734;2023-05-10T07:08:33;3.65;;;1.88;;
55288;SDS011;41154;45.394;5.734;2023-05-10T07:11:02;2.25;;;1.52;;
55288;SDS011;41154;45.394;5.734;2023-05-10T07:13:30;2.92;;;1.30;;
55288;SDS011;41154;45.394;5.734;2023-05-10T07:15:57;2.65;;;1.25;;
55288;SDS011;41154;45.394;5.734;2023-05-10T07:18:23;3.92;;;1.05;;
55288;SDS011;41154;45.394;5.734;2023-05-10T07:20:49;4.53;;;1.05;;
55288;SDS011;41154;45.394;5.734;2023-05-10T07:23:15;4.40;;;1.17;;
55288;SDS011;41154;45.394;5.734;2023-05-10T07:25:49;5.55;;;1.20;;
55288;SDS011;41154;45.394;5.734;2023-05-10T07:28:17;4.67;;;1.43;;
55288;SDS011;41154;45.394;5.734;2023-05-10T07:30:43;5.15;;;1.88;;
55288;SDS011;41154;45.394;5.734;2023-05-10T07:33:10;11.48;;;2.50;;
55288;SDS011;41154;45.394;5.734;2023-05-10T07:35:39;5.57;;;2.15;;
55288;SDS011;41154;45.394;5.734;2023-05-10T07:38:05;3.35;;;1.50;;
55288;SDS011;41154;45.394;5.734;2023-05-10T07:40:31;2.72;;;1.20;;
55288;SDS011;41154;45.394;5.734;2023-05-10T07:42:57;5.35;;;1.48;;
55288;SDS011;41154;45.394;5.734;2023-05-10T07:45:23;2.35;;;1.05;;
55288;SDS011;41154;45.394;5.734;2023-05-10T07:47:49;7.60;;;1.13;;
55288;SDS011;41154;45.394;5.734;2023-05-10T07:50:15;2.88;;;1.10;;
55288;SDS011;41154;45.394;5.734;2023-05-10T07:52:41;5.28;;;1.63;;
55288;SDS011;41154;45.394;5.734;2023-05-10T07:55:07;1.35;;;1.00;;
55288;SDS011;41154;45.394;5.734;2023-05-10T07:57:33;6.40;;;1.50;;
55288;SDS011;41154;45.394;5.734;2023-05-10T07:59:59;5.47;;;1.42;;
55288;SDS011;41154;45.394;5.734;2023-05-10T08:02:25;2.47;;;1.10;;
55288;SDS011;41154;45.394;5.734;2023-05-10T08:04:51;3.08;;;1.10;;
55288;SDS011;41154;45.394;5.734;2023-05-10T08:07:17;4.15;;;1.42;;
55288;SDS011;41154;45.394;5.734;2023-05-10T08:09:42;3.22;;;0.95;;
55288;SDS011;41154;45.394;5.734;2023-05-10T08:12:08;4.13;;;1.20;;
55288;SDS011;41154;45.394;5.734;2023-05-10T08:14:34;2.95;;;0.93;;
55288;SDS011;41154;45.394;5.734;2023-05-10T08:17:02;4.55;;;1.13;;
55288;SDS011;41154;45.394;5.734;2023-05-10T08:19:28;2.67;;;1.10;;
55288;SDS011;41154;45.394;5.734;2023-05-10T08:21:54;3.10;;;0.80;;
55288;SDS011;41154;45.394;5.734;2023-05-10T08:24:21;1.80;;;0.85;;
55288;SDS011;41154;45.394;5.734;2023-05-10T08:26:47;2.28;;;0.82;;
55288;SDS011;41154;45.394;5.734;2023-05-10T08:29:13;3.92;;;0.90;;
55288;SDS011;41154;45.394;5.734;2023-05-10T08:31:39;3.45;;;0.80;;
55288;SDS011;41154;45.394;5.734;2023-05-10T08:34:05;2.08;;;0.73;;
55288;SDS011;41154;45.394;5.734;2023-05-10T08:36:31;5.68;;;1.20;;
55288;SDS011;41154;45.394;5.734;2023-05-10T08:38:57;2.80;;;0.80;;
55288;SDS011;41154;45.394;5.734;2023-05-10T08:41:23;4.95;;;0.82;;
55288;SDS011;41154;45.394;5.734;2023-05-10T08:43:54;5.57;;;1.20;;
55288;SDS011;41154;45.394;5.734;2023-05-10T08:46:22;2.60;;;0.80;;
55288;SDS011;41154;45.394;5.734;2023-05-10T08:48:48;7.18;;;0.93;;
55288;SDS011;41154;45.394;5.734;2023-05-10T08:51:19;2.40;;;1.00;;
55288;SDS011;41154;45.394;5.734;2023-05-10T08:53:47;7.32;;;1.35;;
55288;SDS011;41154;45.394;5.734;2023-05-10T08:56:14;4.22;;;1.15;;
55288;SDS011;41154;45.394;5.734;2023-05-10T08:58:41;6.47;;;1.35;;
55288;SDS011;41154;45.394;5.734;2023-05-10T09:01:07;3.28;;;1.10;;
55288;SDS011;41154;45.394;5.734;2023-05-10T09:03:35;2.70;;;0.82;;
55288;SDS011;41154;45.394;5.734;2023-05-10T09:06:03;1.58;;;0.82;;
55288;SDS011;41154;45.394;5.734;2023-05-10T09:08:30;2.70;;;0.80;;
55288;SDS011;41154;45.394;5.734;2023-05-10T09:10:56;2.35;;;1.02;;
55288;SDS011;41154;45.394;5.734;2023-05-10T09:13:23;2.03;;;0.90;;
55288;SDS011;41154;45.394;5.734;2023-05-10T09:15:49;1.75;;;0.70;;
55288;SDS011;41154;45.394;5.734;2023-05-10T09:18:16;2.60;;;0.75;;
55288;SDS011;41154;45.394;5.734;2023-05-10T09:20:42;8.70;;;1.15;;
55288;SDS011;41154;45.394;5.734;2023-05-10T09:23:08;3.67;;;1.13;;
55288;SDS011;41154;45.394;5.734;2023-05-10T09:25:34;6.03;;;1.25;;
55288;SDS011;41154;45.394;5.734;2023-05-10T09:28:00;3.75;;;0.90;;
55288;SDS011;41154;45.394;5.734;2023-05-10T09:32:52;4.70;;;0.90;;
55288;SDS011;41154;45.394;5.734;2023-05-10T09:35:20;1.42;;;0.75;;
55288;SDS011;41154;45.394;5.734;2023-05-10T09:37:51;2.53;;;1.00;;
55288;SDS011;41154;45.394;5.734;2023-05-10T09:40:23;2.00;;;0.90;;
55288;SDS011;41154;45.394;5.734;2023-05-10T09:43:04;5.07;;;1.42;;
55288;SDS011;41154;45.394;5.734;2023-05-10T09:45:33;2.63;;;1.00;;
55288;SDS011;41154;45.394;5.734;2023-05-10T09:48:03;5.50;;;1.00;;
55288;SDS011;41154;45.394;5.734;2023-05-10T09:50:29;3.33;;;1.10;;
55288;SDS011;41154;45.394;5.734;2023-05-10T09:52:59;2.22;;;0.90;;
55288;SDS011;41154;45.394;5.734;2023-05-10T09:55:37;4.22;;;0.90;;
55288;SDS011;41154;45.394;5.734;2023-05-10T09:58:08;3.50;;;0.95;;
55288;SDS011;41154;45.394;5.734;2023-05-10T10:00:37;3.05;;;0.98;;
55288;SDS011;41154;45.394;5.734;2023-05-10T10:03:04;1.27;;;0.80;;
55288;SDS011;41154;45.394;5.734;2023-05-10T10:05:34;5.00;;;1.00;;
55288;SDS011;41154;45.394;5.734;2023-05-10T10:08:04;3.08;;;0.70;;
55288;SDS011;41154;45.394;5.734;2023-05-10T10:10:31;2.90;;;0.95;;
55288;SDS011;41154;45.394;5.734;2023-05-10T10:12:58;4.00;;;1.52;;
55288;SDS011;41154;45.394;5.734;2023-05-10T10:15:25;3.97;;;1.10;;
55288;SDS011;41154;45.394;5.734;2023-05-10T10:17:51;3.30;;;0.60;;
55288;SDS011;41154;45.394;5.734;2023-05-10T10:20:19;4.57;;;0.80;;
55288;SDS011;41154;45.394;5.734;2023-05-10T10:22:47;2.17;;;0.60;;
55288;SDS011;41154;45.394;5.734;2023-05-10T10:25:13;2.78;;;0.60;;
55288;SDS011;41154;45.394;5.734;2023-05-10T10:35:36;2.38;;;0.77;;
55288;SDS011;41154;45.394;5.734;2023-05-10T10:38:03;7.22;;;1.20;;
55288;SDS011;41154;45.394;5.734;2023-05-10T10:40:29;5.85;;;0.90;;
55288;SDS011;41154;45.394;5.734;2023-05-10T10:42:57;1.60;;;0.68;;
55288;SDS011;41154;45.394;5.734;2023-05-10T10:45:25;2.13;;;0.60;;
55288;SDS011;41154;45.394;5.734;2023-05-10T10:50:55;4.78;;;0.90;;
55288;SDS011;41154;45.394;5.734;2023-05-10T10:53:23;1.35;;;0.60;;
55288;SDS011;41154;45.394;5.734;2023-05-10T10:55:51;0.52;;;0.38;;
55288;SDS011;41154;45.394;5.734;2023-05-10T10:58:33;2.00;;;0.70;;
55288;SDS011;41154;45.394;5.734;2023-05-10T11:01:18;1.45;;;0.70;;
55288;SDS011;41154;45.394;5.734;2023-05-10T11:06:43;1.52;;;0.60;;
55288;SDS011;41154;45.394;5.734;2023-05-10T11:09:10;2.63;;;0.88;;
55288;SDS011;41154;45.394;5.734;2023-05-10T11:11:53;2.92;;;0.77;;
55288;SDS011;41154;45.394;5.734;2023-05-10T11:14:23;2.15;;;0.70;;
55288;SDS011;41154;45.394;5.734;2023-05-10T11:16:49;5.18;;;0.90;;
55288;SDS011;41154;45.394;5.734;2023-05-10T11:19:16;1.15;;;0.57;;
55288;SDS011;41154;45.394;5.734;2023-05-10T11:24:38;0.93;;;0.63;;
55288;SDS011;41154;45.394;5.734;2023-05-10T11:27:05;2.63;;;0.93;;
55288;SDS011;41154;45.394;5.734;2023-05-10T11:29:31;1.08;;;0.57;;
55288;SDS011;41154;45.394;5.734;2023-05-10T11:32:00;0.73;;;0.60;;
55288;SDS011;41154;45.394;5.734;2023-05-10T11:34:27;2.80;;;0.77;;
55288;SDS011;41154;45.394;5.734;2023-05-10T11:36:55;3.63;;;0.80;;
55288;SDS011;41154;45.394;5.734;2023-05-10T11:39:31;2.05;;;0.73;;
55288;SDS011;41154;45.394;5.734;2023-05-10T11:41:58;1.45;;;0.77;;
55288;SDS011;41154;45.394;5.734;2023-05-10T11:44:34;1.38;;;0.50;;
55288;SDS011;41154;45.394;5.734;2023-05-10T11:47:00;0.73;;;0.52;;
55288;SDS011;41154;45.394;5.734;2023-05-10T11:49:28;1.40;;;0.55;;
55288;SDS011;41154;45.394;5.734;2023-05-10T11:52:03;2.97;;;0.80;;
55288;SDS011;41154;45.394;5.734;2023-05-10T11:54:32;1.98;;;0.80;;
55288;SDS011;41154;45.394;5.734;2023-05-10T11:57:00;3.33;;;1.20;;
55288;SDS011;41154;45.394;5.734;2023-05-10T11:59:26;3.58;;;1.13;;
55288;SDS011;41154;45.394;5.734;2023-05-10T12:01:51;2.67;;;1.00;;
55288;SDS011;41154;45.394;5.734;2023-05-10T12:04:17;3.33;;;0.80;;
55288;SDS011;41154;45.394;5.734;2023-05-10T12:06:43;3.35;;;0.60;;
55288;SDS011;41154;45.394;5.734;2023-05-10T12:09:11;2.05;;;0.50;;
55288;SDS011;41154;45.394;5.734;2023-05-10T12:11:38;3.58;;;0.40;;
55288;SDS011;41154;45.394;5.734;2023-05-10T12:14:05;1.60;;;0.50;;
55288;SDS011;41154;45.394;5.734;2023-05-10T12:16:33;4.32;;;0.50;;
55288;SDS011;41154;45.394;5.734;2023-05-10T12:18:59;1.05;;;0.50;;
55288;SDS011;41154;45.394;5.734;2023-05-10T12:21:26;1.38;;;0.50;;
55288;SDS011;41154;45.394;5.734;2023-05-10T12:23:54;1.65;;;0.50;;
55288;SDS011;41154;45.394;5.734;2023-05-10T12:26:24;1.50;;;0.60;;
55288;SDS011;41154;45.394;5.734;2023-05-10T12:28:54;0.95;;;0.70;;
55288;SDS011;41154;45.394;5.734;2023-05-10T12:31:20;3.38;;;0.63;;
55288;SDS011;41154;45.394;5.734;2023-05-10T12:33:46;2.80;;;0.82;;
55288;SDS011;41154;45.394;5.734;2023-05-10T12:36:14;3.05;;;0.90;;
55288;SDS011;41154;45.394;5.734;2023-05-10T12:38:42;3.20;;;1.00;;
55288;SDS011;41154;45.394;5.734;2023-05-10T12:41:10;0.50;;;0.40;;
55288;SDS011;41154;45.394;5.734;2023-05-10T12:43:37;1.13;;;0.60;;
55288;SDS011;41154;45.394;5.734;2023-05-10T12:46:04;1.27;;;0.40;;
55288;SDS011;41154;45.394;5.734;2023-05-10T12:48:37;1.33;;;0.40;;
55288;SDS011;41154;45.394;5.734;2023-05-10T12:51:05;1.33;;;0.60;;
55288;SDS011;41154;45.394;5.734;2023-05-10T12:53:34;0.77;;;0.55;;
55288;SDS011;41154;45.394;5.734;2023-05-10T12:56:01;0.60;;;0.40;;
55288;SDS011;41154;45.394;5.734;2023-05-10T12:58:27;1.15;;;0.40;;
55288;SDS011;41154;45.394;5.734;2023-05-10T13:00:53;0.70;;;0.32;;
55288;SDS011;41154;45.394;5.734;2023-05-10T13:03:19;1.48;;;0.40;;
55288;SDS011;41154;45.394;5.734;2023-05-10T13:05:45;0.77;;;0.30;;
55288;SDS011;41154;45.394;5.734;2023-05-10T13:08:11;1.35;;;0.40;;
55288;SDS011;41154;45.394;5.734;2023-05-10T13:10:36;0.40;;;0.30;;
55288;SDS011;41154;45.394;5.734;2023-05-10T13:13:02;0.47;;;0.40;;
55288;SDS011;41154;45.394;5.734;2023-05-10T13:15:28;2.75;;;0.73;;
55288;SDS011;41154;45.394;5.734;2023-05-10T13:17:54;2.63;;;0.55;;
55288;SDS011;41154;45.394;5.734;2023-05-10T13:20:20;1.58;;;0.50;;
55288;SDS011;41154;45.394;5.734;2023-05-10T13:22:46;1.23;;;0.63;;
55288;SDS011;41154;45.394;5.734;2023-05-10T13:25:12;0.75;;;0.60;;
55288;SDS011;41154;45.394;5.734;2023-05-10T13:27:41;5.22;;;0.70;;
55288;SDS011;41154;45.394;5.734;2023-05-10T13:30:07;4.45;;;2.40;;
55288;SDS011;41154;45.394;5.734;2023-05-10T13:32:33;9.23;;;4.47;;
55288;SDS011;41154;45.394;5.734;2023-05-10T13:35:00;7.68;;;3.63;;
55288;SDS011;41154;45.394;5.734;2023-05-10T13:37:25;1.25;;;0.95;;
55288;SDS011;41154;45.394;5.734;2023-05-10T13:39:51;2.72;;;1.85;;
55288;SDS011;41154;45.394;5.734;2023-05-10T13:42:17;2.63;;;0.70;;
55288;SDS011;41154;45.394;5.734;2023-05-10T13:44:43;4.45;;;0.40;;
55288;SDS011;41154;45.394;5.734;2023-05-10T13:47:09;1.45;;;0.52;;
55288;SDS011;41154;45.394;5.734;2023-05-10T13:49:36;5.35;;;0.68;;
55288;SDS011;41154;45.394;5.734;2023-05-10T13:52:01;1.95;;;0.47;;
55288;SDS011;41154;45.394;5.734;2023-05-10T13:54:34;4.25;;;0.95;;
55288;SDS011;41154;45.394;5.734;2023-05-10T13:57:01;1.70;;;0.65;;
55288;SDS011;41154;45.394;5.734;2023-05-10T13:59:27;1.65;;;0.43;;
55288;SDS011;41154;45.394;5.734;2023-05-10T14:01:53;2.17;;;0.57;;
55288;SDS011;41154;45.394;5.734;2023-05-10T14:04:19;0.47;;;0.47;;
55288;SDS011;41154;45.394;5.734;2023-05-10T14:06:45;0.50;;;0.40;;
55288;SDS011;41154;45.394;5.734;2023-05-10T14:09:11;1.13;;;0.65;;
55288;SDS011;41154;45.394;5.734;2023-05-10T14:11:37;2.72;;;0.55;;
55288;SDS011;41154;45.394;5.734;2023-05-10T14:14:06;0.70;;;0.40;;
55288;SDS011;41154;45.394;5.734;2023-05-10T14:16:32;2.05;;;0.80;;
55288;SDS011;41154;45.394;5.734;2023-05-10T14:18:58;2.22;;;0.60;;
55288;SDS011;41154;45.394;5.734;2023-05-10T14:21:24;1.02;;;0.60;;
55288;SDS011;41154;45.394;5.734;2023-05-10T14:23:50;0.88;;;0.60;;
55288;SDS011;41154;45.394;5.734;2023-05-10T14:26:16;1.70;;;0.65;;
55288;SDS011;41154;45.394;5.734;2023-05-10T14:28:42;2.05;;;0.55;;
55288;SDS011;41154;45.394;5.734;2023-05-10T14:31:07;3.65;;;0.60;;
55288;SDS011;41154;45.394;5.734;2023-05-10T14:33:33;1.67;;;0.77;;
55288;SDS011;41154;45.394;5.734;2023-05-10T14:35:59;0.77;;;0.50;;
55288;SDS011;41154;45.394;5.734;2023-05-10T14:38:25;1.17;;;0.63;;
55288;SDS011;41154;45.394;5.734;2023-05-10T14:40:51;0.68;;;0.57;;
55288;SDS011;41154;45.394;5.734;2023-05-10T14:43:17;1.33;;;0.50;;
55288;SDS011;41154;45.394;5.734;2023-05-10T14:45:43;1.63;;;0.60;;
55288;SDS011;41154;45.394;5.734;2023-05-10T14:48:10;1.73;;;0.77;;
55288;SDS011;41154;45.394;5.734;2023-05-10T14:50:40;0.80;;;0.60;;
55288;SDS011;41154;45.394;5.734;2023-05-10T14:53:06;1.75;;;0.50;;
55288;SDS011;41154;45.394;5.734;2023-05-10T14:55:32;1.52;;;0.70;;
55288;SDS011;41154;45.394;5.734;2023-05-10T14:57:58;2.33;;;0.73;;
55288;SDS011;41154;45.394;5.734;2023-05-10T15:00:23;3.88;;;0.90;;
55288;SDS011;41154;45.394;5.734;2023-05-10T15:02:49;2.00;;;0.57;;
55288;SDS011;41154;45.394;5.734;2023-05-10T15:05:15;1.75;;;0.50;;
55288;SDS011;41154;45.394;5.734;2023-05-10T15:07:40;1.80;;;0.77;;
55288;SDS011;41154;45.394;5.734;2023-05-10T15:10:09;2.78;;;0.75;;
55288;SDS011;41154;45.394;5.734;2023-05-10T15:12:35;1.23;;;0.68;;
55288;SDS011;41154;45.394;5.734;2023-05-10T15:15:01;1.75;;;0.80;;
55288;SDS011;41154;45.394;5.734;2023-05-10T15:17:27;1.17;;;0.80;;
55288;SDS011;41154;45.394;5.734;2023-05-10T15:19:53;0.98;;;0.80;;
55288;SDS011;41154;45.394;5.734;2023-05-10T15:22:18;2.65;;;0.77;;
55288;SDS011;41154;45.394;5.734;2023-05-10T15:24:44;4.63;;;1.10;;
55288;SDS011;41154;45.394;5.734;2023-05-10T15:27:10;3.95;;;0.93;;